KDYR  Dyersburg Regional  Airport

Dyersburg, Tennessee, United States

Add Bookmark
Status Useage
Operational Public
Latitude Longitude
35° 59' 52" N 89° 24' 23" W
35.997972 -89.406583
Local (DST -5) UTC (GMT -6)
Mar 5, 2015 12:39 Mar 5, 2015 18:39
Sunrise-Sunset Local UTC
Begin Civil Twilight 05:54 11:54
Sunrise 06:20 12:20
Sunset 05:57 23:57
End Civil Twilight 06:23 00:23

Current Weather

METAR Observed VFR
KDYR 051755Z 35010KT 10SM CLR M04/M16 A3054 Thu, Mar 5, 2015 @ 17:55 UTC
(44 Minutes ago)
Visual Flight Rules
Wind Visibility Clouds Conditions
350° at 10 knots (12 mph) 10 statute miles
  • Clear skies
  • No significant weather
Temperatures Readings Precipitation
Current Temp -4°C (25°F)
Low Temp -7°C (19°F)
High Temp -4°C (25°F)
Dewpoint -16°C (3°F)
Humidity 39%
Altimeter 30.54"Hg
Sea Level Pressure 1034mb
Field Elevation 337'
None Recorded

Additional weather within a 50nm radius of KDYR

Map ICAO Location
KHKA 20.9nm W (261°)
KBYH 26.2nm W (266°)
KUCY 30.7nm N (042°)
KMKL 33.8nm S (135°)
KNQA 44.6nm S (211°)

24 Hour Weather History

Loading
-

24 Hour Weather Graphs

Loading
-

CheckWX.com is intended as a tool to help pilots better visualize weather data. It is not intended as a substitute for an official weather briefing obtained from a Flight Service Station. CheckWX.com does not meet the FAA requirements for an official pre-flight weather briefing. Therefore, it's important that pilots still call and obtain an official FSS pre-flight weather briefing.